sensor_id;sensor_type;location;lat;lon;timestamp;P1;durP1;ratioP1;P2;durP2;ratioP2
5493;SDS011;2769;49.864;8.656;2023-10-19T00:02:29;24.90;;;17.03;;
5493;SDS011;2769;49.864;8.656;2023-10-19T00:05:16;24.37;;;16.23;;
5493;SDS011;2769;49.864;8.656;2023-10-19T00:08:02;23.53;;;17.00;;
5493;SDS011;2769;49.864;8.656;2023-10-19T00:11:00;27.03;;;18.20;;
5493;SDS011;2769;49.864;8.656;2023-10-19T00:13:47;26.83;;;17.33;;
5493;SDS011;2769;49.864;8.656;2023-10-19T00:16:35;27.30;;;19.07;;
5493;SDS011;2769;49.864;8.656;2023-10-19T00:19:22;28.53;;;19.53;;
5493;SDS011;2769;49.864;8.656;2023-10-19T00:22:13;24.90;;;18.80;;
5493;SDS011;2769;49.864;8.656;2023-10-19T00:25:06;30.53;;;20.17;;
5493;SDS011;2769;49.864;8.656;2023-10-19T00:27:58;26.53;;;19.13;;
5493;SDS011;2769;49.864;8.656;2023-10-19T00:30:48;28.03;;;20.30;;
5493;SDS011;2769;49.864;8.656;2023-10-19T00:33:38;29.87;;;20.43;;
5493;SDS011;2769;49.864;8.656;2023-10-19T00:36:26;31.40;;;19.70;;
5493;SDS011;2769;49.864;8.656;2023-10-19T00:39:16;27.33;;;20.73;;
5493;SDS011;2769;49.864;8.656;2023-10-19T00:42:06;27.27;;;19.63;;
5493;SDS011;2769;49.864;8.656;2023-10-19T00:44:52;28.93;;;20.80;;
5493;SDS011;2769;49.864;8.656;2023-10-19T00:47:46;30.90;;;19.83;;
5493;SDS011;2769;49.864;8.656;2023-10-19T00:50:35;29.63;;;20.90;;
5493;SDS011;2769;49.864;8.656;2023-10-19T00:53:24;33.53;;;20.70;;
5493;SDS011;2769;49.864;8.656;2023-10-19T00:56:11;27.43;;;20.53;;
5493;SDS011;2769;49.864;8.656;2023-10-19T00:58:59;34.60;;;21.73;;
5493;SDS011;2769;49.864;8.656;2023-10-19T01:01:57;26.30;;;19.53;;
5493;SDS011;2769;49.864;8.656;2023-10-19T01:05:01;29.13;;;19.77;;
5493;SDS011;2769;49.864;8.656;2023-10-19T01:07:49;23.67;;;17.80;;
5493;SDS011;2769;49.864;8.656;2023-10-19T01:10:43;29.13;;;18.40;;
5493;SDS011;2769;49.864;8.656;2023-10-19T01:13:31;25.93;;;18.57;;
5493;SDS011;2769;49.864;8.656;2023-10-19T01:16:20;25.40;;;15.67;;
5493;SDS011;2769;49.864;8.656;2023-10-19T01:19:07;17.50;;;14.00;;
5493;SDS011;2769;49.864;8.656;2023-10-19T01:21:53;19.67;;;14.40;;
5493;SDS011;2769;49.864;8.656;2023-10-19T01:24:46;13.80;;;11.60;;
5493;SDS011;2769;49.864;8.656;2023-10-19T01:27:32;19.40;;;13.10;;
5493;SDS011;2769;49.864;8.656;2023-10-19T01:30:19;16.73;;;12.20;;
5493;SDS011;2769;49.864;8.656;2023-10-19T01:33:05;16.40;;;11.70;;
5493;SDS011;2769;49.864;8.656;2023-10-19T01:35:58;14.40;;;10.40;;
5493;SDS011;2769;49.864;8.656;2023-10-19T01:38:57;14.50;;;10.83;;
5493;SDS011;2769;49.864;8.656;2023-10-19T01:41:48;22.37;;;10.97;;
5493;SDS011;2769;49.864;8.656;2023-10-19T01:44:36;17.57;;;11.53;;
5493;SDS011;2769;49.864;8.656;2023-10-19T01:47:22;16.40;;;12.77;;
5493;SDS011;2769;49.864;8.656;2023-10-19T01:50:10;14.47;;;11.13;;
5493;SDS011;2769;49.864;8.656;2023-10-19T01:53:05;15.90;;;11.77;;
5493;SDS011;2769;49.864;8.656;2023-10-19T01:55:57;15.63;;;11.93;;
5493;SDS011;2769;49.864;8.656;2023-10-19T01:58:46;19.23;;;13.30;;
5493;SDS011;2769;49.864;8.656;2023-10-19T02:01:33;18.47;;;13.10;;
5493;SDS011;2769;49.864;8.656;2023-10-19T02:04:22;17.80;;;13.50;;
5493;SDS011;2769;49.864;8.656;2023-10-19T02:07:08;20.10;;;14.27;;
5493;SDS011;2769;49.864;8.656;2023-10-19T02:09:59;23.00;;;14.60;;
5493;SDS011;2769;49.864;8.656;2023-10-19T02:12:46;22.20;;;15.60;;
5493;SDS011;2769;49.864;8.656;2023-10-19T02:15:34;20.07;;;13.77;;
5493;SDS011;2769;49.864;8.656;2023-10-19T02:18:20;18.20;;;14.10;;
5493;SDS011;2769;49.864;8.656;2023-10-19T02:21:06;19.77;;;13.60;;
5493;SDS011;2769;49.864;8.656;2023-10-19T02:23:52;17.70;;;14.00;;
5493;SDS011;2769;49.864;8.656;2023-10-19T02:26:38;19.73;;;15.17;;
5493;SDS011;2769;49.864;8.656;2023-10-19T02:29:25;22.73;;;14.70;;
5493;SDS011;2769;49.864;8.656;2023-10-19T02:32:14;19.27;;;14.90;;
5493;SDS011;2769;49.864;8.656;2023-10-19T02:35:05;22.03;;;15.33;;
5493;SDS011;2769;49.864;8.656;2023-10-19T02:37:51;18.20;;;15.70;;
5493;SDS011;2769;49.864;8.656;2023-10-19T02:40:37;22.50;;;14.80;;
5493;SDS011;2769;49.864;8.656;2023-10-19T02:43:24;22.37;;;16.07;;
5493;SDS011;2769;49.864;8.656;2023-10-19T02:46:11;25.47;;;17.37;;
5493;SDS011;2769;49.864;8.656;2023-10-19T02:49:01;26.17;;;17.43;;
5493;SDS011;2769;49.864;8.656;2023-10-19T02:51:49;23.77;;;18.20;;
5493;SDS011;2769;49.864;8.656;2023-10-19T02:54:36;28.13;;;17.23;;
5493;SDS011;2769;49.864;8.656;2023-10-19T02:57:23;25.67;;;17.37;;
5493;SDS011;2769;49.864;8.656;2023-10-19T03:00:09;24.83;;;18.27;;
5493;SDS011;2769;49.864;8.656;2023-10-19T03:02:58;24.50;;;17.20;;
5493;SDS011;2769;49.864;8.656;2023-10-19T03:05:46;22.57;;;17.20;;
5493;SDS011;2769;49.864;8.656;2023-10-19T03:08:33;30.30;;;18.50;;
5493;SDS011;2769;49.864;8.656;2023-10-19T03:11:20;26.53;;;18.87;;
5493;SDS011;2769;49.864;8.656;2023-10-19T03:14:06;26.67;;;17.90;;
5493;SDS011;2769;49.864;8.656;2023-10-19T03:16:53;30.97;;;19.37;;
5493;SDS011;2769;49.864;8.656;2023-10-19T03:19:40;27.17;;;17.93;;
5493;SDS011;2769;49.864;8.656;2023-10-19T03:22:28;28.70;;;17.70;;
5493;SDS011;2769;49.864;8.656;2023-10-19T03:25:15;22.93;;;17.90;;
5493;SDS011;2769;49.864;8.656;2023-10-19T03:28:16;26.87;;;17.53;;
5493;SDS011;2769;49.864;8.656;2023-10-19T03:31:04;26.90;;;19.57;;
5493;SDS011;2769;49.864;8.656;2023-10-19T03:33:51;28.40;;;19.33;;
5493;SDS011;2769;49.864;8.656;2023-10-19T03:36:44;29.37;;;19.77;;
5493;SDS011;2769;49.864;8.656;2023-10-19T03:39:33;30.10;;;19.20;;
5493;SDS011;2769;49.864;8.656;2023-10-19T03:42:23;28.10;;;19.30;;
5493;SDS011;2769;49.864;8.656;2023-10-19T03:45:12;28.83;;;20.17;;
5493;SDS011;2769;49.864;8.656;2023-10-19T03:47:59;31.07;;;20.50;;
5493;SDS011;2769;49.864;8.656;2023-10-19T03:50:52;28.87;;;19.87;;
5493;SDS011;2769;49.864;8.656;2023-10-19T03:53:40;32.97;;;19.57;;
5493;SDS011;2769;49.864;8.656;2023-10-19T03:56:32;29.00;;;20.20;;
5493;SDS011;2769;49.864;8.656;2023-10-19T03:59:18;33.50;;;20.90;;
5493;SDS011;2769;49.864;8.656;2023-10-19T04:02:06;33.63;;;20.33;;
5493;SDS011;2769;49.864;8.656;2023-10-19T04:04:55;31.77;;;20.57;;
5493;SDS011;2769;49.864;8.656;2023-10-19T04:07:43;29.83;;;20.27;;
5493;SDS011;2769;49.864;8.656;2023-10-19T04:10:29;35.60;;;20.80;;
5493;SDS011;2769;49.864;8.656;2023-10-19T04:13:25;30.60;;;21.47;;
5493;SDS011;2769;49.864;8.656;2023-10-19T04:16:12;32.60;;;21.27;;
5493;SDS011;2769;49.864;8.656;2023-10-19T04:18:58;33.10;;;22.90;;
5493;SDS011;2769;49.864;8.656;2023-10-19T04:21:45;33.10;;;22.10;;
5493;SDS011;2769;49.864;8.656;2023-10-19T04:24:32;33.70;;;22.57;;
5493;SDS011;2769;49.864;8.656;2023-10-19T04:27:19;33.87;;;22.60;;
5493;SDS011;2769;49.864;8.656;2023-10-19T04:30:10;31.87;;;21.97;;
5493;SDS011;2769;49.864;8.656;2023-10-19T04:33:02;30.93;;;21.80;;
5493;SDS011;2769;49.864;8.656;2023-10-19T04:35:53;31.47;;;21.27;;
5493;SDS011;2769;49.864;8.656;2023-10-19T04:38:43;32.63;;;21.27;;
5493;SDS011;2769;49.864;8.656;2023-10-19T04:41:30;30.27;;;20.80;;
5493;SDS011;2769;49.864;8.656;2023-10-19T04:44:17;31.43;;;20.43;;
5493;SDS011;2769;49.864;8.656;2023-10-19T04:47:04;40.20;;;22.17;;
5493;SDS011;2769;49.864;8.656;2023-10-19T04:49:51;34.57;;;20.60;;
5493;SDS011;2769;49.864;8.656;2023-10-19T04:52:39;30.50;;;20.00;;
5493;SDS011;2769;49.864;8.656;2023-10-19T04:55:25;32.40;;;19.83;;
5493;SDS011;2769;49.864;8.656;2023-10-19T04:58:12;30.10;;;19.93;;
5493;SDS011;2769;49.864;8.656;2023-10-19T05:00:59;30.83;;;19.87;;
5493;SDS011;2769;49.864;8.656;2023-10-19T05:03:50;34.33;;;19.87;;
5493;SDS011;2769;49.864;8.656;2023-10-19T05:06:36;34.13;;;20.87;;
5493;SDS011;2769;49.864;8.656;2023-10-19T05:09:23;33.30;;;21.87;;
5493;SDS011;2769;49.864;8.656;2023-10-19T05:12:10;32.30;;;21.33;;
5493;SDS011;2769;49.864;8.656;2023-10-19T05:14:57;33.20;;;20.83;;
5493;SDS011;2769;49.864;8.656;2023-10-19T05:17:44;30.30;;;19.57;;
5493;SDS011;2769;49.864;8.656;2023-10-19T05:20:33;26.57;;;19.23;;
5493;SDS011;2769;49.864;8.656;2023-10-19T05:23:24;29.40;;;19.40;;
5493;SDS011;2769;49.864;8.656;2023-10-19T05:26:13;34.10;;;20.47;;
5493;SDS011;2769;49.864;8.656;2023-10-19T05:28:59;29.40;;;18.37;;
5493;SDS011;2769;49.864;8.656;2023-10-19T05:31:46;29.57;;;19.73;;
5493;SDS011;2769;49.864;8.656;2023-10-19T05:34:38;34.17;;;19.63;;
5493;SDS011;2769;49.864;8.656;2023-10-19T05:37:26;38.90;;;19.20;;
5493;SDS011;2769;49.864;8.656;2023-10-19T05:40:14;28.97;;;18.37;;
5493;SDS011;2769;49.864;8.656;2023-10-19T05:43:03;32.37;;;18.10;;
5493;SDS011;2769;49.864;8.656;2023-10-19T05:45:49;31.13;;;18.63;;
5493;SDS011;2769;49.864;8.656;2023-10-19T05:48:36;28.60;;;19.00;;
5493;SDS011;2769;49.864;8.656;2023-10-19T05:51:23;35.93;;;17.50;;
5493;SDS011;2769;49.864;8.656;2023-10-19T05:54:10;34.17;;;19.50;;
5493;SDS011;2769;49.864;8.656;2023-10-19T05:56:58;27.17;;;17.80;;
5493;SDS011;2769;49.864;8.656;2023-10-19T05:59:45;30.90;;;19.30;;
5493;SDS011;2769;49.864;8.656;2023-10-19T06:02:32;39.67;;;19.97;;
5493;SDS011;2769;49.864;8.656;2023-10-19T06:05:20;33.97;;;19.30;;
5493;SDS011;2769;49.864;8.656;2023-10-19T06:08:06;31.13;;;19.83;;
5493;SDS011;2769;49.864;8.656;2023-10-19T06:10:55;31.43;;;18.50;;
5493;SDS011;2769;49.864;8.656;2023-10-19T06:13:42;35.13;;;18.87;;
5493;SDS011;2769;49.864;8.656;2023-10-19T06:16:28;35.37;;;18.33;;
5493;SDS011;2769;49.864;8.656;2023-10-19T06:19:15;35.23;;;19.50;;
5493;SDS011;2769;49.864;8.656;2023-10-19T06:22:02;31.37;;;20.97;;
5493;SDS011;2769;49.864;8.656;2023-10-19T06:24:49;35.77;;;19.50;;
5493;SDS011;2769;49.864;8.656;2023-10-19T06:27:38;25.93;;;17.90;;
5493;SDS011;2769;49.864;8.656;2023-10-19T06:30:24;32.50;;;19.13;;
5493;SDS011;2769;49.864;8.656;2023-10-19T06:33:11;28.30;;;19.00;;
5493;SDS011;2769;49.864;8.656;2023-10-19T06:35:58;27.87;;;19.53;;
5493;SDS011;2769;49.864;8.656;2023-10-19T06:38:48;28.47;;;18.97;;
5493;SDS011;2769;49.864;8.656;2023-10-19T06:41:36;27.37;;;17.77;;
5493;SDS011;2769;49.864;8.656;2023-10-19T06:44:23;28.43;;;18.73;;
5493;SDS011;2769;49.864;8.656;2023-10-19T06:47:10;28.13;;;19.20;;
5493;SDS011;2769;49.864;8.656;2023-10-19T06:49:58;29.07;;;18.00;;
5493;SDS011;2769;49.864;8.656;2023-10-19T06:52:47;28.10;;;17.57;;
5493;SDS011;2769;49.864;8.656;2023-10-19T06:55:34;24.97;;;17.40;;
5493;SDS011;2769;49.864;8.656;2023-10-19T06:58:20;25.60;;;17.43;;
5493;SDS011;2769;49.864;8.656;2023-10-19T07:01:12;22.73;;;16.80;;
5493;SDS011;2769;49.864;8.656;2023-10-19T07:04:01;22.87;;;17.40;;
5493;SDS011;2769;49.864;8.656;2023-10-19T07:06:48;24.97;;;16.00;;
5493;SDS011;2769;49.864;8.656;2023-10-19T07:09:35;25.17;;;16.73;;
5493;SDS011;2769;49.864;8.656;2023-10-19T07:12:21;19.00;;;14.50;;
5493;SDS011;2769;49.864;8.656;2023-10-19T07:15:08;23.67;;;15.20;;
5493;SDS011;2769;49.864;8.656;2023-10-19T07:18:00;21.33;;;15.43;;
5493;SDS011;2769;49.864;8.656;2023-10-19T07:20:46;18.43;;;14.53;;
5493;SDS011;2769;49.864;8.656;2023-10-19T07:23:34;20.77;;;14.03;;
5493;SDS011;2769;49.864;8.656;2023-10-19T07:26:22;21.07;;;14.80;;
5493;SDS011;2769;49.864;8.656;2023-10-19T07:29:16;22.90;;;14.50;;
5493;SDS011;2769;49.864;8.656;2023-10-19T07:32:04;18.40;;;13.60;;
5493;SDS011;2769;49.864;8.656;2023-10-19T07:34:52;21.63;;;13.57;;
5493;SDS011;2769;49.864;8.656;2023-10-19T07:37:39;19.67;;;13.23;;
5493;SDS011;2769;49.864;8.656;2023-10-19T07:40:26;23.13;;;12.77;;
5493;SDS011;2769;49.864;8.656;2023-10-19T07:43:13;21.20;;;12.83;;
5493;SDS011;2769;49.864;8.656;2023-10-19T07:45:59;15.57;;;12.80;;
5493;SDS011;2769;49.864;8.656;2023-10-19T07:48:46;18.60;;;13.53;;
5493;SDS011;2769;49.864;8.656;2023-10-19T07:51:34;16.97;;;12.70;;
5493;SDS011;2769;49.864;8.656;2023-10-19T07:54:20;16.83;;;12.47;;
5493;SDS011;2769;49.864;8.656;2023-10-19T07:57:07;20.93;;;12.80;;
5493;SDS011;2769;49.864;8.656;2023-10-19T07:59:53;16.73;;;12.60;;
5493;SDS011;2769;49.864;8.656;2023-10-19T08:02:41;18.13;;;11.87;;
5493;SDS011;2769;49.864;8.656;2023-10-19T08:05:30;15.80;;;12.70;;
5493;SDS011;2769;49.864;8.656;2023-10-19T08:08:18;14.27;;;11.83;;
5493;SDS011;2769;49.864;8.656;2023-10-19T08:11:04;19.43;;;12.73;;
5493;SDS011;2769;49.864;8.656;2023-10-19T08:13:51;16.70;;;11.73;;
5493;SDS011;2769;49.864;8.656;2023-10-19T08:16:40;15.60;;;11.27;;
5493;SDS011;2769;49.864;8.656;2023-10-19T08:19:28;14.90;;;11.57;;
5493;SDS011;2769;49.864;8.656;2023-10-19T08:22:16;15.90;;;11.43;;
5493;SDS011;2769;49.864;8.656;2023-10-19T08:25:05;16.80;;;11.20;;
5493;SDS011;2769;49.864;8.656;2023-10-19T08:27:57;12.50;;;10.53;;
5493;SDS011;2769;49.864;8.656;2023-10-19T08:30:43;14.60;;;11.40;;
5493;SDS011;2769;49.864;8.656;2023-10-19T08:33:46;13.00;;;10.90;;
5493;SDS011;2769;49.864;8.656;2023-10-19T08:36:32;15.50;;;10.87;;
5493;SDS011;2769;49.864;8.656;2023-10-19T08:39:28;14.50;;;10.03;;
5493;SDS011;2769;49.864;8.656;2023-10-19T08:42:22;14.70;;;10.20;;
5493;SDS011;2769;49.864;8.656;2023-10-19T08:45:09;10.83;;;9.50;;
5493;SDS011;2769;49.864;8.656;2023-10-19T08:47:58;12.63;;;9.20;;
5493;SDS011;2769;49.864;8.656;2023-10-19T08:50:46;11.70;;;8.70;;
5493;SDS011;2769;49.864;8.656;2023-10-19T08:53:33;15.63;;;8.67;;
5493;SDS011;2769;49.864;8.656;2023-10-19T08:56:24;9.50;;;8.50;;
5493;SDS011;2769;49.864;8.656;2023-10-19T08:59:13;10.80;;;6.87;;
5493;SDS011;2769;49.864;8.656;2023-10-19T09:02:01;15.23;;;8.47;;
5493;SDS011;2769;49.864;8.656;2023-10-19T09:04:48;15.17;;;6.60;;
5493;SDS011;2769;49.864;8.656;2023-10-19T09:07:35;9.83;;;5.70;;
5493;SDS011;2769;49.864;8.656;2023-10-19T09:10:27;8.40;;;6.00;;
5493;SDS011;2769;49.864;8.656;2023-10-19T09:13:17;11.30;;;6.30;;
5493;SDS011;2769;49.864;8.656;2023-10-19T09:16:07;5.73;;;5.23;;
5493;SDS011;2769;49.864;8.656;2023-10-19T09:18:54;8.13;;;5.30;;
5493;SDS011;2769;49.864;8.656;2023-10-19T09:21:41;5.33;;;4.40;;
5493;SDS011;2769;49.864;8.656;2023-10-19T09:24:28;4.20;;;3.80;;
5493;SDS011;2769;49.864;8.656;2023-10-19T09:27:16;5.70;;;4.00;;
5493;SDS011;2769;49.864;8.656;2023-10-19T09:30:04;4.33;;;3.80;;
5493;SDS011;2769;49.864;8.656;2023-10-19T09:32:54;5.93;;;4.40;;
5493;SDS011;2769;49.864;8.656;2023-10-19T09:35:41;6.17;;;3.73;;
5493;SDS011;2769;49.864;8.656;2023-10-19T09:38:30;4.80;;;3.80;;
5493;SDS011;2769;49.864;8.656;2023-10-19T09:41:19;5.90;;;4.07;;
5493;SDS011;2769;49.864;8.656;2023-10-19T09:44:07;3.97;;;3.40;;
5493;SDS011;2769;49.864;8.656;2023-10-19T09:46:57;11.13;;;4.00;;
5493;SDS011;2769;49.864;8.656;2023-10-19T09:49:47;4.60;;;3.60;;
5493;SDS011;2769;49.864;8.656;2023-10-19T09:52:36;5.47;;;3.20;;
5493;SDS011;2769;49.864;8.656;2023-10-19T09:55:24;3.73;;;3.00;;
5493;SDS011;2769;49.864;8.656;2023-10-19T09:58:15;4.07;;;3.03;;
5493;SDS011;2769;49.864;8.656;2023-10-19T10:01:04;3.03;;;2.83;;
5493;SDS011;2769;49.864;8.656;2023-10-19T10:03:57;5.00;;;3.57;;
5493;SDS011;2769;49.864;8.656;2023-10-19T10:06:58;3.10;;;2.83;;
5493;SDS011;2769;49.864;8.656;2023-10-19T10:09:45;4.33;;;2.80;;
5493;SDS011;2769;49.864;8.656;2023-10-19T10:12:32;4.43;;;3.00;;
5493;SDS011;2769;49.864;8.656;2023-10-19T10:15:20;5.77;;;2.50;;
5493;SDS011;2769;49.864;8.656;2023-10-19T10:18:24;8.40;;;2.60;;
5493;SDS011;2769;49.864;8.656;2023-10-19T10:21:12;5.03;;;2.90;;
5493;SDS011;2769;49.864;8.656;2023-10-19T10:24:02;4.93;;;2.53;;
5493;SDS011;2769;49.864;8.656;2023-10-19T10:26:59;6.80;;;2.77;;
5493;SDS011;2769;49.864;8.656;2023-10-19T10:29:54;4.97;;;2.60;;
5493;SDS011;2769;49.864;8.656;2023-10-19T10:32:45;7.77;;;2.27;;
5493;SDS011;2769;49.864;8.656;2023-10-19T10:38:41;5.53;;;3.07;;
5493;SDS011;2769;49.864;8.656;2023-10-19T10:41:29;6.17;;;2.30;;
5493;SDS011;2769;49.864;8.656;2023-10-19T10:44:17;3.07;;;1.87;;
5493;SDS011;2769;49.864;8.656;2023-10-19T10:47:05;2.77;;;2.20;;
5493;SDS011;2769;49.864;8.656;2023-10-19T10:49:54;3.17;;;2.00;;
5493;SDS011;2769;49.864;8.656;2023-10-19T10:52:42;5.80;;;2.40;;
5493;SDS011;2769;49.864;8.656;2023-10-19T10:55:29;3.37;;;2.30;;
5493;SDS011;2769;49.864;8.656;2023-10-19T10:58:17;5.80;;;2.50;;
5493;SDS011;2769;49.864;8.656;2023-10-19T11:01:04;4.33;;;2.33;;
5493;SDS011;2769;49.864;8.656;2023-10-19T11:04:04;5.60;;;2.77;;
5493;SDS011;2769;49.864;8.656;2023-10-19T11:06:51;7.23;;;2.50;;
5493;SDS011;2769;49.864;8.656;2023-10-19T11:09:43;4.40;;;2.60;;
5493;SDS011;2769;49.864;8.656;2023-10-19T11:12:31;3.70;;;2.27;;
5493;SDS011;2769;49.864;8.656;2023-10-19T11:15:21;3.63;;;2.80;;
5493;SDS011;2769;49.864;8.656;2023-10-19T11:18:08;5.53;;;2.70;;
5493;SDS011;2769;49.864;8.656;2023-10-19T11:20:55;5.27;;;3.00;;
5493;SDS011;2769;49.864;8.656;2023-10-19T11:23:45;8.33;;;4.10;;
5493;SDS011;2769;49.864;8.656;2023-10-19T11:26:39;5.03;;;3.63;;
5493;SDS011;2769;49.864;8.656;2023-10-19T11:29:25;8.33;;;4.77;;
5493;SDS011;2769;49.864;8.656;2023-10-19T11:32:13;7.40;;;4.27;;
5493;SDS011;2769;49.864;8.656;2023-10-19T11:35:00;4.77;;;4.20;;
5493;SDS011;2769;49.864;8.656;2023-10-19T11:37:47;5.57;;;3.90;;
5493;SDS011;2769;49.864;8.656;2023-10-19T11:40:37;16.23;;;4.17;;
5493;SDS011;2769;49.864;8.656;2023-10-19T11:43:25;7.07;;;3.73;;
5493;SDS011;2769;49.864;8.656;2023-10-19T11:46:13;4.50;;;4.10;;
5493;SDS011;2769;49.864;8.656;2023-10-19T11:49:03;3.63;;;3.37;;
5493;SDS011;2769;49.864;8.656;2023-10-19T11:51:50;6.13;;;3.90;;
5493;SDS011;2769;49.864;8.656;2023-10-19T11:54:40;5.93;;;4.50;;
5493;SDS011;2769;49.864;8.656;2023-10-19T11:57:28;6.33;;;3.57;;
5493;SDS011;2769;49.864;8.656;2023-10-19T12:00:14;5.40;;;3.90;;
5493;SDS011;2769;49.864;8.656;2023-10-19T12:03:07;5.23;;;4.10;;
5493;SDS011;2769;49.864;8.656;2023-10-19T12:05:57;6.70;;;4.40;;
5493;SDS011;2769;49.864;8.656;2023-10-19T12:08:43;6.13;;;3.80;;
5493;SDS011;2769;49.864;8.656;2023-10-19T12:11:29;5.23;;;3.77;;
5493;SDS011;2769;49.864;8.656;2023-10-19T12:14:17;5.10;;;3.70;;
5493;SDS011;2769;49.864;8.656;2023-10-19T12:17:04;4.73;;;4.20;;
5493;SDS011;2769;49.864;8.656;2023-10-19T12:19:53;9.90;;;5.90;;
5493;SDS011;2769;49.864;8.656;2023-10-19T12:22:42;5.90;;;3.93;;
5493;SDS011;2769;49.864;8.656;2023-10-19T12:25:28;8.23;;;4.70;;
5493;SDS011;2769;49.864;8.656;2023-10-19T12:28:34;11.47;;;4.57;;
5493;SDS011;2769;49.864;8.656;2023-10-19T12:31:23;5.23;;;4.73;;
5493;SDS011;2769;49.864;8.656;2023-10-19T12:34:10;4.80;;;4.03;;
5493;SDS011;2769;49.864;8.656;2023-10-19T12:36:57;4.03;;;3.67;;
5493;SDS011;2769;49.864;8.656;2023-10-19T12:39:45;5.97;;;4.60;;
5493;SDS011;2769;49.864;8.656;2023-10-19T12:42:34;14.77;;;4.37;;
5493;SDS011;2769;49.864;8.656;2023-10-19T12:45:21;6.57;;;3.73;;
5493;SDS011;2769;49.864;8.656;2023-10-19T12:48:08;6.20;;;3.83;;
5493;SDS011;2769;49.864;8.656;2023-10-19T12:50:56;7.40;;;3.67;;
5493;SDS011;2769;49.864;8.656;2023-10-19T12:53:43;6.70;;;4.10;;
5493;SDS011;2769;49.864;8.656;2023-10-19T12:56:33;6.10;;;4.07;;
5493;SDS011;2769;49.864;8.656;2023-10-19T12:59:21;4.53;;;3.40;;
5493;SDS011;2769;49.864;8.656;2023-10-19T13:02:07;5.33;;;3.43;;
5493;SDS011;2769;49.864;8.656;2023-10-19T13:04:54;4.53;;;4.03;;
5493;SDS011;2769;49.864;8.656;2023-10-19T13:07:42;4.40;;;3.90;;
5493;SDS011;2769;49.864;8.656;2023-10-19T13:10:29;5.80;;;3.87;;
5493;SDS011;2769;49.864;8.656;2023-10-19T13:13:18;5.70;;;4.27;;
5493;SDS011;2769;49.864;8.656;2023-10-19T13:16:09;11.10;;;4.43;;
5493;SDS011;2769;49.864;8.656;2023-10-19T13:18:56;4.80;;;4.13;;
5493;SDS011;2769;49.864;8.656;2023-10-19T13:21:42;6.30;;;4.40;;
5493;SDS011;2769;49.864;8.656;2023-10-19T13:24:29;12.03;;;5.10;;
5493;SDS011;2769;49.864;8.656;2023-10-19T13:27:17;8.43;;;4.53;;
5493;SDS011;2769;49.864;8.656;2023-10-19T13:30:06;9.20;;;5.13;;
5493;SDS011;2769;49.864;8.656;2023-10-19T13:32:55;7.90;;;4.57;;
5493;SDS011;2769;49.864;8.656;2023-10-19T13:35:42;7.33;;;4.73;;
5493;SDS011;2769;49.864;8.656;2023-10-19T13:38:29;5.87;;;4.40;;
5493;SDS011;2769;49.864;8.656;2023-10-19T13:41:16;7.73;;;4.80;;
5493;SDS011;2769;49.864;8.656;2023-10-19T13:44:03;5.73;;;4.73;;
5493;SDS011;2769;49.864;8.656;2023-10-19T13:46:51;6.93;;;5.37;;
5493;SDS011;2769;49.864;8.656;2023-10-19T13:49:39;5.53;;;4.80;;
5493;SDS011;2769;49.864;8.656;2023-10-19T13:52:26;6.83;;;5.43;;
5493;SDS011;2769;49.864;8.656;2023-10-19T13:55:13;10.30;;;7.40;;
5493;SDS011;2769;49.864;8.656;2023-10-19T13:58:05;7.67;;;6.00;;
5493;SDS011;2769;49.864;8.656;2023-10-19T14:00:52;7.50;;;6.57;;
5493;SDS011;2769;49.864;8.656;2023-10-19T14:03:41;10.33;;;7.90;;
5493;SDS011;2769;49.864;8.656;2023-10-19T14:06:27;7.57;;;6.77;;
5493;SDS011;2769;49.864;8.656;2023-10-19T14:09:14;9.70;;;7.50;;
5493;SDS011;2769;49.864;8.656;2023-10-19T14:12:03;10.50;;;6.20;;
5493;SDS011;2769;49.864;8.656;2023-10-19T14:14:50;9.27;;;5.93;;
5493;SDS011;2769;49.864;8.656;2023-10-19T14:17:37;12.10;;;6.60;;
5493;SDS011;2769;49.864;8.656;2023-10-19T14:20:25;8.33;;;6.90;;
5493;SDS011;2769;49.864;8.656;2023-10-19T14:23:15;9.13;;;6.10;;
5493;SDS011;2769;49.864;8.656;2023-10-19T14:26:02;7.70;;;5.80;;
5493;SDS011;2769;49.864;8.656;2023-10-19T14:28:48;11.60;;;6.40;;
5493;SDS011;2769;49.864;8.656;2023-10-19T14:31:35;7.77;;;6.90;;
5493;SDS011;2769;49.864;8.656;2023-10-19T14:34:22;8.37;;;6.37;;
5493;SDS011;2769;49.864;8.656;2023-10-19T14:37:10;7.87;;;6.70;;
5493;SDS011;2769;49.864;8.656;2023-10-19T14:39:57;11.67;;;7.23;;
5493;SDS011;2769;49.864;8.656;2023-10-19T14:42:44;9.93;;;6.50;;
5493;SDS011;2769;49.864;8.656;2023-10-19T14:45:30;8.60;;;6.83;;
5493;SDS011;2769;49.864;8.656;2023-10-19T14:48:17;8.77;;;6.87;;
5493;SDS011;2769;49.864;8.656;2023-10-19T14:51:05;10.93;;;7.50;;
5493;SDS011;2769;49.864;8.656;2023-10-19T14:53:54;11.07;;;7.47;;
5493;SDS011;2769;49.864;8.656;2023-10-19T14:56:40;13.00;;;7.90;;
5493;SDS011;2769;49.864;8.656;2023-10-19T14:59:27;9.70;;;7.70;;
5493;SDS011;2769;49.864;8.656;2023-10-19T15:02:14;11.00;;;7.80;;
5493;SDS011;2769;49.864;8.656;2023-10-19T15:05:03;10.77;;;7.90;;
5493;SDS011;2769;49.864;8.656;2023-10-19T15:07:51;12.80;;;7.93;;
5493;SDS011;2769;49.864;8.656;2023-10-19T15:10:41;12.70;;;7.40;;
5493;SDS011;2769;49.864;8.656;2023-10-19T15:13:28;14.43;;;8.40;;
5493;SDS011;2769;49.864;8.656;2023-10-19T15:16:14;11.10;;;7.87;;
5493;SDS011;2769;49.864;8.656;2023-10-19T15:19:02;17.00;;;7.50;;
5493;SDS011;2769;49.864;8.656;2023-10-19T15:21:49;12.07;;;6.17;;
5493;SDS011;2769;49.864;8.656;2023-10-19T15:24:35;15.97;;;6.07;;
5493;SDS011;2769;49.864;8.656;2023-10-19T15:27:23;12.50;;;6.40;;
5493;SDS011;2769;49.864;8.656;2023-10-19T15:30:10;6.93;;;6.17;;
5493;SDS011;2769;49.864;8.656;2023-10-19T15:32:58;12.40;;;5.27;;
5493;SDS011;2769;49.864;8.656;2023-10-19T15:35:47;6.53;;;4.83;;
5493;SDS011;2769;49.864;8.656;2023-10-19T15:38:33;7.03;;;5.27;;
5493;SDS011;2769;49.864;8.656;2023-10-19T15:41:20;3.63;;;3.30;;
5493;SDS011;2769;49.864;8.656;2023-10-19T15:44:07;3.80;;;3.33;;
5493;SDS011;2769;49.864;8.656;2023-10-19T15:46:54;6.43;;;3.07;;
5493;SDS011;2769;49.864;8.656;2023-10-19T15:49:45;2.63;;;2.50;;
5493;SDS011;2769;49.864;8.656;2023-10-19T15:52:33;5.57;;;4.10;;
5493;SDS011;2769;49.864;8.656;2023-10-19T15:55:21;5.43;;;3.50;;
5493;SDS011;2769;49.864;8.656;2023-10-19T15:58:07;3.93;;;3.20;;
5493;SDS011;2769;49.864;8.656;2023-10-19T16:00:57;3.73;;;3.43;;
5493;SDS011;2769;49.864;8.656;2023-10-19T16:03:44;4.03;;;3.73;;
5493;SDS011;2769;49.864;8.656;2023-10-19T16:06:31;4.80;;;3.77;;
5493;SDS011;2769;49.864;8.656;2023-10-19T16:09:17;6.03;;;4.20;;
5493;SDS011;2769;49.864;8.656;2023-10-19T16:12:05;4.30;;;4.00;;
5493;SDS011;2769;49.864;8.656;2023-10-19T16:14:53;7.13;;;4.00;;
5493;SDS011;2769;49.864;8.656;2023-10-19T16:17:41;6.00;;;4.57;;
5493;SDS011;2769;49.864;8.656;2023-10-19T16:20:28;5.90;;;3.83;;
5493;SDS011;2769;49.864;8.656;2023-10-19T16:23:15;5.47;;;4.30;;
5493;SDS011;2769;49.864;8.656;2023-10-19T16:26:02;4.93;;;4.17;;
5493;SDS011;2769;49.864;8.656;2023-10-19T16:28:48;4.87;;;4.47;;
5493;SDS011;2769;49.864;8.656;2023-10-19T16:31:35;4.87;;;4.30;;
5493;SDS011;2769;49.864;8.656;2023-10-19T16:34:23;5.73;;;4.60;;
5493;SDS011;2769;49.864;8.656;2023-10-19T16:37:10;5.00;;;4.50;;
5493;SDS011;2769;49.864;8.656;2023-10-19T16:39:56;11.63;;;4.60;;
5493;SDS011;2769;49.864;8.656;2023-10-19T16:42:43;8.30;;;5.50;;
5493;SDS011;2769;49.864;8.656;2023-10-19T16:45:31;6.03;;;5.50;;
5493;SDS011;2769;49.864;8.656;2023-10-19T16:48:21;9.10;;;5.60;;
5493;SDS011;2769;49.864;8.656;2023-10-19T16:51:10;6.03;;;5.30;;
5493;SDS011;2769;49.864;8.656;2023-10-19T16:53:56;9.50;;;6.00;;
5493;SDS011;2769;49.864;8.656;2023-10-19T16:56:43;6.73;;;6.13;;
5493;SDS011;2769;49.864;8.656;2023-10-19T16:59:32;6.87;;;6.20;;
5493;SDS011;2769;49.864;8.656;2023-10-19T17:02:18;8.87;;;6.30;;
5493;SDS011;2769;49.864;8.656;2023-10-19T17:05:05;10.43;;;6.80;;
5493;SDS011;2769;49.864;8.656;2023-10-19T17:07:53;12.90;;;7.60;;
5493;SDS011;2769;49.864;8.656;2023-10-19T17:10:39;10.90;;;6.60;;
5493;SDS011;2769;49.864;8.656;2023-10-19T17:13:26;7.17;;;6.47;;